Connecticut State Prison, Connecticut
Current Conditions -  °F | °C
As of 1:51 PM on Thursday 18 Dec 2014 (Local Time) from KBDL Reporting Station
Overcast Overcast  
Wind Chill: 31°   Ceiling: 3200
Heat Index: 40°   Visibility: 10mi
Dew Point: 26°   Wind: 17mph
Humidity: 58%   Direction: 300°WNW
Pressure: 29.86"   Gusts: 23mph
Location:  41.9956°N, 72.451°W
Report Text: KBDL 181851Z 30015G20KT 10SM OVC032 04/M03 A2986 RMK AO2 SLP111 T00441033
Loading
Personal Weather Stations






























Interactive Weather Map New forecast layout! Learn more

10-Day Weather Forecast

Advertisements
Track Severe Weather on mobile